Time;durP1;ratioP1;P1;durP2;ratioP2;P2;SDS_P1;SDS_P2;PMS_P1;PMS_P2;Temp;Humidity;BMP_temperature;BMP_pressure;BME280_temperature;BME280_humidity;BME280_pressure;Samples;Min_cycle;Max_cycle;Signal;HPM_P1;HPM_P2
2021/09/28 00:00:36;;;;;;;2.73;1.10;;;14.60;99.90;;;;;;5015422;28;20756;-84
2021/09/28 00:03:05;;;;;;;5.67;0.70;;;14.60;99.90;;;;;;4997770;28;20178;-84
2021/09/28 00:05:31;;;;;;;2.90;0.90;;;14.50;99.90;;;;;;5015204;28;20255;-84
2021/09/28 00:08:00;;;;;;;4.33;0.97;;;14.50;99.90;;;;;;5015345;28;20498;-85
2021/09/28 00:10:25;;;;;;;5.47;1.20;;;14.50;99.90;;;;;;4997251;28;20238;-83
2021/09/28 00:12:51;;;;;;;4.77;0.87;;;14.40;99.90;;;;;;5015090;28;20414;-83
2021/09/28 00:15:17;;;;;;;6.60;1.10;;;14.40;99.90;;;;;;5015101;28;20182;-84
2021/09/28 00:17:45;;;;;;;3.77;0.80;;;14.40;99.90;;;;;;5015044;28;20262;-84
2021/09/28 00:20:12;;;;;;;5.13;1.07;;;14.30;99.90;;;;;;5015061;28;20429;-84
2021/09/28 00:22:38;;;;;;;4.30;0.83;;;14.30;99.90;;;;;;5015077;28;20410;-82
2021/09/28 00:25:07;;;;;;;5.33;2.10;;;14.30;99.90;;;;;;4997283;28;20517;-87
2021/09/28 00:27:33;;;;;;;3.90;1.67;;;14.20;99.90;;;;;;5014834;28;20434;-85
2021/09/28 00:29:59;;;;;;;4.90;1.23;;;14.20;99.90;;;;;;5014041;28;20959;-86
2021/09/28 00:32:25;;;;;;;3.17;1.60;;;14.10;99.90;;;;;;4997485;28;20178;-85
2021/09/28 00:34:51;;;;;;;6.33;1.70;;;14.10;99.90;;;;;;5014903;28;20949;-89
2021/09/28 00:37:17;;;;;;;4.87;0.90;;;14.10;99.90;;;;;;4997341;28;20414;-87
2021/09/28 00:39:43;;;;;;;4.47;1.70;;;14.00;99.90;;;;;;5014543;28;20209;-87
2021/09/28 00:42:08;;;;;;;5.77;1.27;;;14.00;99.90;;;;;;4997432;28;20202;-87
2021/09/28 00:44:40;;;;;;;5.30;1.40;;;13.90;99.90;;;;;;4997109;28;20426;-87
2021/09/28 00:47:08;;;;;;;4.63;1.00;;;13.90;99.90;;;;;;5014749;28;20167;-87
2021/09/28 00:49:34;;;;;;;7.50;2.00;;;13.90;99.90;;;;;;4996882;28;20473;-86
2021/09/28 00:52:00;;;;;;;8.30;1.60;;;13.80;99.90;;;;;;4997035;28;20430;-89
2021/09/28 00:54:26;;;;;;;4.90;1.60;;;13.80;99.90;;;;;;5014236;28;20513;-87
2021/09/28 00:56:52;;;;;;;3.57;1.03;;;13.80;99.90;;;;;;5014459;28;20462;-86
2021/09/28 00:59:19;;;;;;;8.43;1.77;;;13.70;99.90;;;;;;4996724;28;20167;-87
2021/09/28 01:01:45;;;;;;;10.43;1.83;;;13.70;99.90;;;;;;4996263;28;20431;-87
2021/09/28 01:04:16;;;;;;;5.93;1.57;;;13.60;99.90;;;;;;5014441;28;20503;-88
2021/09/28 01:06:42;;;;;;;5.20;2.00;;;13.60;99.90;;;;;;4996605;28;20462;-86
2021/09/28 01:09:09;;;;;;;6.03;1.70;;;13.60;99.90;;;;;;4996240;28;20465;-86
2021/09/28 01:11:35;;;;;;;5.60;1.90;;;13.50;99.90;;;;;;5014224;28;20504;-87
2021/09/28 01:14:00;;;;;;;7.00;1.80;;;13.50;99.90;;;;;;4996675;28;20518;-87
2021/09/28 01:16:26;;;;;;;3.57;1.20;;;13.50;99.90;;;;;;4996601;28;20167;-88
2021/09/28 01:18:51;;;;;;;4.93;1.70;;;13.40;99.90;;;;;;4996446;28;20186;-87
2021/09/28 01:21:19;;;;;;;3.17;0.90;;;13.40;99.90;;;;;;5014119;28;20229;-86
2021/09/28 01:23:45;;;;;;;8.73;1.67;;;13.30;99.90;;;;;;5013647;28;20190;-86
2021/09/28 01:26:23;;;;;;;5.73;1.10;;;13.30;99.90;;;;;;5013892;28;20483;-85
2021/09/28 01:28:50;;;;;;;5.47;1.07;;;13.30;99.90;;;;;;5013832;28;20206;-86
2021/09/28 01:31:16;;;;;;;6.63;1.80;;;13.30;99.90;;;;;;4996298;28;20477;-86
2021/09/28 01:33:42;;;;;;;7.70;1.50;;;13.30;99.90;;;;;;5013727;28;20418;-87
2021/09/28 01:36:07;;;;;;;6.03;1.23;;;13.20;99.90;;;;;;5013766;28;20535;-87
2021/09/28 01:38:33;;;;;;;5.40;1.50;;;13.30;99.90;;;;;;4995852;28;20440;-88
2021/09/28 01:40:59;;;;;;;5.90;2.23;;;13.20;99.90;;;;;;5013424;28;20179;-87
2021/09/28 01:43:25;;;;;;;6.50;1.73;;;13.20;99.90;;;;;;5013814;28;20532;-87
2021/09/28 01:45:56;;;;;;;5.50;1.57;;;13.20;99.90;;;;;;5013712;28;20260;-87
2021/09/28 01:48:24;;;;;;;8.40;1.80;;;13.20;99.90;;;;;;4995913;28;20419;-88
2021/09/28 01:50:50;;;;;;;6.30;1.67;;;13.20;99.90;;;;;;5013581;28;20477;-86
2021/09/28 01:53:21;;;;;;;4.33;2.10;;;13.30;99.90;;;;;;4995937;28;20817;-88
2021/09/28 01:55:47;;;;;;;7.07;1.80;;;13.30;99.90;;;;;;4995781;28;20244;-88
2021/09/28 01:58:14;;;;;;;8.00;1.73;;;13.30;99.90;;;;;;5015530;28;20418;-89
2021/09/28 02:00:40;;;;;;;5.47;2.30;;;13.30;99.90;;;;;;4997062;28;20310;-86
2021/09/28 02:03:06;;;;;;;4.97;2.30;;;13.20;99.90;;;;;;5014573;28;20500;-88
2021/09/28 02:05:32;;;;;;;7.57;3.57;;;13.10;99.90;;;;;;4996326;28;20993;-87
2021/09/28 02:07:57;;;;;;;6.93;1.80;;;13.10;99.90;;;;;;5013417;28;20410;-85
2021/09/28 02:10:23;;;;;;;9.73;2.00;;;13.00;99.90;;;;;;5012975;28;20242;-86
2021/09/28 02:12:49;;;;;;;6.93;2.70;;;13.00;99.90;;;;;;5013218;28;20171;-87
2021/09/28 02:15:14;;;;;;;6.60;2.63;;;12.90;99.90;;;;;;5013242;28;20542;-86
2021/09/28 02:17:40;;;;;;;8.50;2.30;;;12.90;99.90;;;;;;4996406;28;20178;-87
2021/09/28 02:20:06;;;;;;;8.97;2.60;;;13.00;99.90;;;;;;4995533;28;20175;-86
2021/09/28 02:22:32;;;;;;;6.83;2.70;;;12.90;99.90;;;;;;4995324;28;20484;-86
2021/09/28 02:24:58;;;;;;;5.03;1.57;;;12.90;99.90;;;;;;5012533;28;20430;-86
2021/09/28 02:27:23;;;;;;;7.00;2.77;;;12.80;99.90;;;;;;4995559;28;20180;-86
2021/09/28 02:29:52;;;;;;;8.13;2.30;;;12.80;99.90;;;;;;5012820;28;20304;-88
2021/09/28 02:32:18;;;;;;;8.53;3.13;;;12.80;99.90;;;;;;4995624;28;20248;-86
2021/09/28 02:34:43;;;;;;;7.90;2.87;;;12.70;99.90;;;;;;5013117;28;20432;-86
2021/09/28 02:37:13;;;;;;;5.00;1.60;;;12.60;99.90;;;;;;5012933;28;20179;-85
2021/09/28 02:39:40;;;;;;;12.13;3.60;;;12.70;99.90;;;;;;4995041;28;20542;-86
2021/09/28 02:42:08;;;;;;;4.13;1.80;;;12.70;99.90;;;;;;5012545;28;20428;-87
2021/09/28 02:44:34;;;;;;;4.47;2.10;;;12.60;99.90;;;;;;5013005;28;20816;-86
2021/09/28 02:47:00;;;;;;;3.93;2.40;;;12.60;99.90;;;;;;5013001;28;21019;-86
2021/09/28 02:49:25;;;;;;;9.10;1.83;;;12.50;99.90;;;;;;4995226;28;20306;-86
2021/09/28 02:51:51;;;;;;;3.40;1.60;;;12.40;99.90;;;;;;4996129;28;20638;-86
2021/09/28 02:54:16;;;;;;;4.90;1.90;;;12.30;99.90;;;;;;5016483;28;20260;-86
2021/09/28 02:56:42;;;;;;;6.37;2.47;;;12.30;99.90;;;;;;5016674;28;20738;-86
2021/09/28 02:59:08;;;;;;;5.80;2.40;;;12.30;99.90;;;;;;5016691;28;20174;-86
2021/09/28 03:01:36;;;;;;;10.20;1.80;;;12.20;99.90;;;;;;4999125;28;20547;-86
2021/09/28 03:04:01;;;;;;;8.10;1.60;;;12.20;99.90;;;;;;5016398;28;20179;-88
2021/09/28 03:06:27;;;;;;;2.80;1.57;;;12.10;99.90;;;;;;5016390;28;20813;-85
2021/09/28 03:08:53;;;;;;;5.00;1.70;;;12.10;99.90;;;;;;5016058;28;20200;-86
2021/09/28 03:11:18;;;;;;;4.23;1.80;;;12.00;99.90;;;;;;5016501;28;20594;-87
2021/09/28 03:13:47;;;;;;;3.77;1.43;;;12.00;99.90;;;;;;5016478;28;20508;-85
2021/09/28 03:16:12;;;;;;;4.40;1.67;;;12.00;99.90;;;;;;5016395;28;20181;-85
2021/09/28 03:18:38;;;;;;;3.30;1.37;;;11.90;99.90;;;;;;4998738;28;20490;-85
2021/09/28 03:21:03;;;;;;;4.53;1.20;;;11.90;99.90;;;;;;5016347;28;20195;-86
2021/09/28 03:23:29;;;;;;;6.70;1.43;;;11.90;99.90;;;;;;4998281;28;20183;-85
2021/09/28 03:25:54;;;;;;;5.80;1.90;;;11.90;99.90;;;;;;5016162;28;20620;-85
2021/09/28 03:28:20;;;;;;;6.93;2.60;;;11.90;99.90;;;;;;5016167;28;20181;-86
2021/09/28 03:30:46;;;;;;;4.10;2.10;;;11.80;99.90;;;;;;4998472;28;20215;-85
2021/09/28 03:33:11;;;;;;;3.80;1.80;;;11.70;99.90;;;;;;5016097;28;20648;-86
2021/09/28 03:35:37;;;;;;;4.90;1.40;;;11.70;99.90;;;;;;5016045;28;20185;-86
2021/09/28 03:38:03;;;;;;;3.83;1.37;;;11.80;99.90;;;;;;5015971;28;20542;-86
2021/09/28 03:40:30;;;;;;;5.77;1.90;;;11.80;99.90;;;;;;4997894;28;20253;-86
2021/09/28 03:42:56;;;;;;;6.90;2.30;;;11.80;99.90;;;;;;4998268;28;20185;-85
2021/09/28 03:45:22;;;;;;;3.90;2.20;;;11.70;99.90;;;;;;5015781;28;20772;-85
2021/09/28 03:47:48;;;;;;;6.77;2.60;;;11.70;99.90;;;;;;5015759;28;20421;-85
2021/09/28 03:50:13;;;;;;;4.17;1.93;;;11.70;99.90;;;;;;5015625;28;20214;-87
2021/09/28 03:52:39;;;;;;;3.93;2.30;;;11.60;99.90;;;;;;4998153;28;20184;-86
2021/09/28 03:55:06;;;;;;;6.93;2.10;;;11.60;99.90;;;;;;5015161;28;20193;-87
2021/09/28 03:57:32;;;;;;;3.00;1.77;;;11.50;99.90;;;;;;4997884;28;20181;-86
2021/09/28 03:59:57;;;;;;;4.57;1.97;;;11.50;99.90;;;;;;5015638;28;20510;-89
2021/09/28 04:02:23;;;;;;;3.60;1.33;;;11.50;99.90;;;;;;4997954;28;20228;-88
2021/09/28 04:04:49;;;;;;;2.70;1.27;;;11.40;99.90;;;;;;5015250;28;20228;-87
2021/09/28 04:07:14;;;;;;;3.80;1.53;;;11.40;99.90;;;;;;4997624;28;20597;-87
2021/09/28 04:09:40;;;;;;;2.20;1.53;;;11.40;99.90;;;;;;4997382;28;20230;-88
2021/09/28 04:12:09;;;;;;;6.43;2.23;;;11.40;99.90;;;;;;5015432;28;20195;-87
2021/09/28 04:14:35;;;;;;;3.67;2.10;;;11.40;99.90;;;;;;4997624;28;20183;-88
2021/09/28 04:17:00;;;;;;;3.57;1.33;;;11.40;99.90;;;;;;4997830;28;20417;-88
2021/09/28 04:19:26;;;;;;;3.70;2.10;;;11.40;99.90;;;;;;5015260;28;20416;-87
2021/09/28 04:21:52;;;;;;;3.37;2.40;;;11.40;99.90;;;;;;5015612;28;20172;-87
2021/09/28 04:24:17;;;;;;;2.87;1.30;;;11.40;99.90;;;;;;5016078;28;20177;-87
2021/09/28 04:26:43;;;;;;;3.50;2.00;;;11.30;99.90;;;;;;4998585;28;20725;-87
2021/09/28 04:29:15;;;;;;;5.07;2.10;;;11.20;99.90;;;;;;4997678;28;20228;-88
2021/09/28 04:31:41;;;;;;;5.00;3.10;;;11.30;99.90;;;;;;5010379;28;20183;-88
2021/09/28 04:34:06;;;;;;;5.83;2.57;;;11.30;99.90;;;;;;4978321;28;20427;-88
2021/09/28 04:36:33;;;;;;;6.10;2.10;;;11.30;99.90;;;;;;4995536;28;20304;-89
2021/09/28 04:38:58;;;;;;;5.10;3.00;;;11.30;99.90;;;;;;4978365;28;20185;-88
2021/09/28 04:41:24;;;;;;;5.50;2.93;;;11.30;99.90;;;;;;4995909;28;20421;-87
2021/09/28 04:43:50;;;;;;;5.50;2.83;;;11.30;99.90;;;;;;4983975;28;20273;-87
2021/09/28 04:46:16;;;;;;;4.93;3.17;;;11.30;99.90;;;;;;4977776;28;20696;-87
2021/09/28 04:48:45;;;;;;;3.13;2.53;;;11.40;99.90;;;;;;4995239;28;20181;-87
2021/09/28 04:51:11;;;;;;;4.73;2.93;;;11.30;99.90;;;;;;4977822;28;20451;-87
2021/09/28 04:53:36;;;;;;;4.77;2.97;;;11.30;99.90;;;;;;4994915;28;20415;-88
2021/09/28 04:56:02;;;;;;;6.53;3.30;;;11.30;99.90;;;;;;4994966;28;20178;-87
2021/09/28 04:58:28;;;;;;;5.57;3.27;;;11.30;99.90;;;;;;4977367;28;20180;-87
2021/09/28 05:00:54;;;;;;;3.87;2.27;;;11.20;99.90;;;;;;4994770;28;20223;-87
2021/09/28 05:03:19;;;;;;;6.07;2.00;;;11.10;99.90;;;;;;4977424;28;20214;-87
2021/09/28 05:05:45;;;;;;;2.87;1.47;;;11.10;99.90;;;;;;4977180;28;20507;-87
2021/09/28 05:08:11;;;;;;;5.37;2.63;;;11.00;99.90;;;;;;4992799;28;20180;-88
2021/09/28 05:10:37;;;;;;;8.90;3.13;;;11.00;99.90;;;;;;4993683;28;20229;-87
2021/09/28 05:13:05;;;;;;;3.73;1.33;;;11.00;99.90;;;;;;4976919;28;20932;-86
2021/09/28 05:15:31;;;;;;;2.70;1.47;;;11.00;99.90;;;;;;4976493;28;20821;-86
2021/09/28 05:17:56;;;;;;;5.67;2.23;;;11.00;99.90;;;;;;4994495;28;20420;-87
2021/09/28 05:20:22;;;;;;;4.83;2.00;;;11.00;99.90;;;;;;4976872;28;20429;-87
2021/09/28 05:22:54;;;;;;;4.07;2.10;;;11.00;99.90;;;;;;4994377;28;20181;-86
2021/09/28 05:25:19;;;;;;;6.47;2.60;;;11.10;99.90;;;;;;4994345;28;20194;-86
2021/09/28 05:27:45;;;;;;;6.93;2.30;;;11.30;99.90;;;;;;4994273;28;20408;-88
2021/09/28 05:30:11;;;;;;;4.67;2.63;;;11.40;99.90;;;;;;4994279;28;20218;-87
2021/09/28 05:32:36;;;;;;;6.47;3.90;;;11.60;99.90;;;;;;4993975;28;20233;-86
2021/09/28 05:35:04;;;;;;;7.03;2.00;;;11.70;99.90;;;;;;4994309;28;20410;-87
2021/09/28 05:37:30;;;;;;;3.20;1.90;;;11.70;99.90;;;;;;4994276;28;20186;-87
2021/09/28 05:39:58;;;;;;;3.53;2.23;;;11.60;99.90;;;;;;4993851;28;20404;-88
2021/09/28 05:42:24;;;;;;;4.33;2.60;;;11.60;99.90;;;;;;4976608;28;20276;-87
2021/09/28 05:44:49;;;;;;;5.47;3.20;;;11.60;99.90;;;;;;4976659;28;20973;-87
2021/09/28 05:47:21;;;;;;;6.63;2.53;;;11.50;99.90;;;;;;4994397;28;20188;-88
2021/09/28 05:49:47;;;;;;;5.73;3.30;;;11.50;99.90;;;;;;4976802;28;20677;-87
2021/09/28 05:52:14;;;;;;;5.13;2.73;;;11.50;99.90;;;;;;4993992;28;20416;-88
2021/09/28 05:54:50;;;;;;;5.80;3.37;;;11.50;99.90;;;;;;4976871;28;20209;-87
2021/09/28 05:57:24;;;;;;;4.80;2.67;;;11.60;99.90;;;;;;4994200;28;20424;-87
2021/09/28 05:59:50;;;;;;;6.50;2.93;;;11.60;99.90;;;;;;4993963;28;20525;-87
2021/09/28 06:02:18;;;;;;;6.50;3.73;;;11.70;99.90;;;;;;4976528;28;20442;-88
2021/09/28 06:04:44;;;;;;;5.70;3.50;;;11.70;99.90;;;;;;4993814;28;20510;-86
2021/09/28 06:07:14;;;;;;;6.97;3.73;;;11.80;99.90;;;;;;4993731;28;20468;-86
2021/09/28 06:09:41;;;;;;;6.23;4.13;;;11.90;99.90;;;;;;4975979;28;20558;-87
2021/09/28 06:12:09;;;;;;;11.93;6.50;;;12.10;99.90;;;;;;4993890;28;20513;-88
2021/09/28 06:14:35;;;;;;;6.60;4.80;;;12.30;99.90;;;;;;4994516;28;20401;-87
2021/09/28 06:17:04;;;;;;;7.33;3.53;;;12.50;99.90;;;;;;4976506;28;20413;-87
2021/09/28 06:19:30;;;;;;;6.77;2.83;;;12.60;99.90;;;;;;4993753;28;20799;-86
2021/09/28 06:21:57;;;;;;;8.63;3.37;;;12.80;99.90;;;;;;4993540;28;20425;-87
2021/09/28 06:24:23;;;;;;;10.23;3.73;;;13.00;99.90;;;;;;4993318;28;20414;-88
2021/09/28 06:26:49;;;;;;;4.83;3.63;;;13.10;99.90;;;;;;4977073;28;20886;-87
2021/09/28 06:29:16;;;;;;;6.90;3.23;;;13.00;99.90;;;;;;4997614;28;20470;-87
2021/09/28 06:31:42;;;;;;;6.27;2.90;;;13.10;99.90;;;;;;4997897;28;20417;-87
2021/09/28 06:34:08;;;;;;;5.70;3.20;;;13.50;99.90;;;;;;4998038;28;20426;-86
2021/09/28 06:36:34;;;;;;;6.77;3.40;;;13.80;99.90;;;;;;4998457;28;20407;-87
2021/09/28 06:39:01;;;;;;;4.93;2.93;;;14.60;99.90;;;;;;4981280;28;20430;-87
2021/09/28 06:41:27;;;;;;;8.17;3.10;;;15.20;99.90;;;;;;4981706;28;20419;-85
2021/09/28 06:43:54;;;;;;;7.57;2.83;;;15.70;99.90;;;;;;4999289;28;20416;-84
2021/09/28 06:46:21;;;;;;;7.10;1.73;;;15.70;99.90;;;;;;4999583;28;20428;-85
2021/09/28 06:48:49;;;;;;;5.10;1.83;;;15.60;99.90;;;;;;4998511;28;20504;-90
2021/09/28 06:51:15;;;;;;;2.90;1.63;;;17.20;99.90;;;;;;4997351;28;20850;-88
2021/09/28 06:53:41;;;;;;;4.37;1.20;;;19.30;99.90;;;;;;4997248;28;20458;-85
2021/09/28 06:56:07;;;;;;;3.10;1.47;;;20.30;99.90;;;;;;4979877;28;20176;-85
2021/09/28 06:58:33;;;;;;;1.73;1.30;;;20.70;99.90;;;;;;4997433;28;20166;-86
2021/09/28 07:00:59;;;;;;;4.40;1.73;;;20.80;99.90;;;;;;4997803;28;20175;-86
2021/09/28 07:03:27;;;;;;;3.70;1.60;;;20.60;99.90;;;;;;4980616;28;20428;-86
2021/09/28 07:05:53;;;;;;;1.70;1.60;;;20.90;99.90;;;;;;4996961;28;20222;-85
2021/09/28 07:08:18;;;;;;;4.10;1.40;;;19.80;99.90;;;;;;4997000;28;20492;-86
2021/09/28 07:10:44;;;;;;;2.60;0.90;;;18.10;99.90;;;;;;4980310;28;20213;-87
2021/09/28 07:13:10;;;;;;;3.30;1.40;;;18.40;99.90;;;;;;4996957;28;20178;-87
2021/09/28 07:15:35;;;;;;;4.30;1.30;;;18.40;99.90;;;;;;4979460;28;20188;-86
2021/09/28 07:18:01;;;;;;;2.10;1.27;;;19.50;99.90;;;;;;4979616;28;20689;-87
2021/09/28 07:20:28;;;;;;;5.70;1.37;;;20.20;99.90;;;;;;4979664;28;20174;-87
2021/09/28 07:22:54;;;;;;;3.10;1.00;;;19.20;99.90;;;;;;4979493;28;20428;-87
2021/09/28 07:25:19;;;;;;;5.30;1.80;;;17.10;99.90;;;;;;4996889;28;20425;-86
2021/09/28 07:27:45;;;;;;;7.40;1.47;;;17.10;99.90;;;;;;4979781;28;20556;-86
2021/09/28 07:30:12;;;;;;;4.80;1.03;;;19.40;99.90;;;;;;4996751;28;20593;-86
2021/09/28 07:32:38;;;;;;;5.07;1.33;;;19.60;99.90;;;;;;4997250;28;20412;-84
2021/09/28 07:35:08;;;;;;;4.43;1.17;;;21.00;99.90;;;;;;4979330;28;20836;-85
2021/09/28 07:37:36;;;;;;;6.70;1.30;;;21.20;99.90;;;;;;4995487;28;20501;-86
2021/09/28 07:40:03;;;;;;;2.30;0.60;;;21.40;99.90;;;;;;4996524;28;20487;-87
2021/09/28 07:42:30;;;;;;;3.43;1.20;;;21.40;99.90;;;;;;4995922;28;20490;-86
2021/09/28 07:44:56;;;;;;;4.90;1.20;;;20.90;99.90;;;;;;4995719;28;20419;-86
2021/09/28 07:47:22;;;;;;;5.63;1.60;;;20.40;99.90;;;;;;4995607;28;20411;-85
2021/09/28 07:49:51;;;;;;;5.07;1.20;;;22.00;99.90;;;;;;4995545;28;20615;-86
2021/09/28 07:52:16;;;;;;;9.50;2.03;;;20.00;99.90;;;;;;4996088;28;20415;-86
2021/09/28 07:54:42;;;;;;;6.60;1.00;;;19.20;99.90;;;;;;4995740;28;20418;-86
2021/09/28 07:57:08;;;;;;;3.07;1.03;;;22.00;99.90;;;;;;4978556;28;20171;-86
2021/09/28 07:59:35;;;;;;;3.33;1.17;;;23.70;99.90;;;;;;4996026;28;20172;-86
2021/09/28 08:02:01;;;;;;;5.00;1.27;;;23.80;99.90;;;;;;4980039;28;20415;-86
2021/09/28 08:04:26;;;;;;;6.30;1.83;;;23.50;99.90;;;;;;5000744;28;20830;-86
2021/09/28 08:06:54;;;;;;;3.97;1.53;;;23.50;99.90;;;;;;4980369;28;20578;-87
2021/09/28 08:09:20;;;;;;;2.70;0.70;;;24.00;99.90;;;;;;4978856;28;20290;-82
2021/09/28 08:11:46;;;;;;;6.17;1.27;;;24.20;99.80;;;;;;4996276;28;20481;-84
2021/09/28 08:14:11;;;;;;;1.50;0.60;;;24.00;98.90;;;;;;4996271;28;20180;-85
2021/09/28 08:16:37;;;;;;;3.70;0.97;;;23.90;99.90;;;;;;4997149;28;20629;-85
2021/09/28 08:19:04;;;;;;;4.97;1.37;;;22.50;99.90;;;;;;4996480;28;20179;-86
2021/09/28 08:21:30;;;;;;;5.53;1.57;;;22.60;99.90;;;;;;4998164;28;20179;-85
2021/09/28 08:23:56;;;;;;;7.57;2.50;;;23.20;99.90;;;;;;4998342;28;20454;-83
2021/09/28 08:29:10;;;;;;;6.60;1.60;;;24.30;99.90;;;;;;4997377;28;20172;-84
2021/09/28 08:31:44;;;;;;;6.33;1.40;;;24.70;99.90;;;;;;4980156;28;20431;-83
2021/09/28 08:34:11;;;;;;;7.90;1.80;;;24.60;99.90;;;;;;4979436;28;20410;-85
2021/09/28 08:36:37;;;;;;;8.77;1.87;;;25.30;99.80;;;;;;4995877;28;20430;-83
2021/09/28 08:39:05;;;;;;;3.23;1.10;;;25.60;98.30;;;;;;4995537;28;20527;-83
2021/09/28 08:41:31;;;;;;;4.27;0.97;;;25.80;97.40;;;;;;4995727;28;20415;-84
2021/09/28 08:43:57;;;;;;;4.03;0.83;;;26.30;95.40;;;;;;4996873;28;20546;-86
2021/09/28 08:46:25;;;;;;;2.33;0.80;;;26.20;93.50;;;;;;4997731;28;20455;-87
2021/09/28 08:48:50;;;;;;;3.37;0.93;;;27.10;94.40;;;;;;4980166;28;20175;-85
2021/09/28 08:51:16;;;;;;;3.33;1.10;;;26.30;93.50;;;;;;4978880;28;20505;-86
2021/09/28 08:53:42;;;;;;;3.23;0.93;;;26.40;93.00;;;;;;4978463;28;20183;-86
2021/09/28 08:56:11;;;;;;;2.87;0.90;;;26.20;93.10;;;;;;4995317;28;20628;-86
2021/09/28 08:58:57;;;;;;;3.23;0.97;;;26.50;93.80;;;;;;4995282;28;20413;-87
2021/09/28 09:01:23;;;;;;;2.90;0.90;;;26.80;92.40;;;;;;4977624;28;20422;-85
2021/09/28 09:03:49;;;;;;;4.73;1.80;;;26.90;91.90;;;;;;4994795;28;20422;-87
2021/09/28 09:06:15;;;;;;;5.20;1.47;;;27.20;91.30;;;;;;4994556;28;20537;-86
2021/09/28 09:08:42;;;;;;;4.13;0.70;;;27.00;90.40;;;;;;4989203;28;20266;-86
2021/09/28 09:11:12;;;;;;;2.93;1.17;;;27.10;91.50;;;;;;4989953;28;20257;-86
2021/09/28 09:13:47;;;;;;;3.13;0.97;;;27.40;92.00;;;;;;4994365;28;20418;-86
2021/09/28 09:16:15;;;;;;;4.87;1.03;;;26.90;88.50;;;;;;4993144;28;20429;-85
2021/09/28 09:18:43;;;;;;;5.40;1.00;;;26.80;90.10;;;;;;4994028;28;20422;-84
2021/09/28 09:21:09;;;;;;;3.70;0.83;;;26.50;88.20;;;;;;4994155;28;20505;-84
2021/09/28 09:23:37;;;;;;;2.77;0.73;;;27.10;89.30;;;;;;4993555;28;20554;-85
2021/09/28 09:26:14;;;;;;;3.53;0.80;;;27.30;88.00;;;;;;4989145;28;20426;-86
2021/09/28 09:28:44;;;;;;;2.27;0.77;;;27.40;85.10;;;;;;4979371;28;20438;-85
2021/09/28 09:31:15;;;;;;;2.27;0.73;;;27.30;85.10;;;;;;4992693;28;20474;-85
2021/09/28 09:33:44;;;;;;;4.93;1.17;;;27.00;89.60;;;;;;4992528;28;20419;-84
2021/09/28 09:36:17;;;;;;;3.30;0.97;;;27.50;87.10;;;;;;4993861;28;20904;-86
2021/09/28 09:38:56;;;;;;;3.33;1.60;;;27.40;82.20;;;;;;4993738;28;20911;-85
2021/09/28 09:41:32;;;;;;;2.77;0.90;;;26.90;90.90;;;;;;4993723;28;20415;-85
2021/09/28 09:44:07;;;;;;;3.73;0.67;;;27.20;82.60;;;;;;4993849;28;20417;-85
2021/09/28 09:46:53;;;;;;;3.70;0.80;;;27.10;82.20;;;;;;4976049;28;20863;-85
2021/09/28 09:49:28;;;;;;;2.00;0.70;;;27.30;85.90;;;;;;4992995;28;21612;-85
2021/09/28 09:51:58;;;;;;;1.77;0.40;;;27.80;86.90;;;;;;5055898;23;21538;-82
2021/09/28 09:54:39;;;;;;;2.10;0.60;;;27.70;90.10;;;;;;4972920;28;20493;-85
2021/09/28 09:57:06;;;;;;;2.37;0.40;;;27.40;83.30;;;;;;4993553;28;20418;-90
2021/09/28 09:59:32;;;;;;;3.27;0.63;;;27.80;92.10;;;;;;4993521;28;20911;-85
2021/09/28 10:01:58;;;;;;;2.73;0.60;;;28.10;87.20;;;;;;4993408;28;20407;-85
2021/09/28 10:04:24;;;;;;;2.90;1.00;;;27.80;84.50;;;;;;4993505;28;20778;-84
2021/09/28 10:06:54;;;;;;;3.33;0.50;;;28.60;79.30;;;;;;4993210;28;20644;-85
2021/09/28 10:09:47;;;;;;;2.13;0.60;;;28.10;80.00;;;;;;4993038;28;20493;-86
2021/09/28 10:12:13;;;;;;;2.50;0.63;;;26.60;96.80;;;;;;4989887;28;21060;-85
2021/09/28 10:14:43;;;;;;;4.13;1.10;;;25.80;99.10;;;;;;4993224;28;20906;-84
2021/09/28 10:17:28;;;;;;;2.30;0.30;;;25.80;99.70;;;;;;4989413;28;20184;-85
2021/09/28 10:20:02;;;;;;;3.60;0.40;;;26.30;96.40;;;;;;4993260;28;20454;-85
2021/09/28 10:22:48;;;;;;;3.20;0.43;;;26.30;99.20;;;;;;4993038;28;20514;-84
2021/09/28 10:25:19;;;;;;;2.10;0.80;;;25.90;99.70;;;;;;4993325;28;20417;-85
2021/09/28 10:27:46;;;;;;;2.30;0.30;;;25.40;99.90;;;;;;4993270;28;20778;-85
2021/09/28 10:30:35;;;;;;;2.50;0.30;;;24.80;98.90;;;;;;4975820;28;20474;-84
2021/09/28 10:33:23;;;;;;;2.87;0.60;;;24.80;99.90;;;;;;4975810;28;20501;-89
2021/09/28 10:36:01;;;;;;;2.90;0.47;;;25.10;97.40;;;;;;4993354;28;20422;-85
2021/09/28 10:39:02;;;;;;;2.13;0.30;;;24.30;99.90;;;;;;4993283;28;20446;-85
2021/09/28 10:41:48;;;;;;;3.00;0.47;;;24.70;99.90;;;;;;4976559;28;20520;-85
2021/09/28 10:44:37;;;;;;;2.00;0.30;;;24.40;99.90;;;;;;4993256;28;20415;-84
2021/09/28 10:47:06;;;;;;;3.87;0.40;;;24.90;98.50;;;;;;4975718;28;20915;-86
2021/09/28 10:49:37;;;;;;;1.83;0.27;;;25.20;95.30;;;;;;4992911;28;20566;-85
2021/09/28 10:52:20;;;;;;;1.43;0.30;;;25.90;99.00;;;;;;4975186;28;20958;-84
2021/09/28 10:55:09;;;;;;;2.00;0.50;;;25.70;98.60;;;;;;4975560;28;20442;-85
2021/09/28 10:57:53;;;;;;;1.57;0.33;;;26.20;97.80;;;;;;4993022;28;20425;-85
2021/09/28 11:00:25;;;;;;;4.43;0.40;;;25.90;98.00;;;;;;4975425;28;20419;-85
2021/09/28 11:02:59;;;;;;;3.30;0.67;;;25.80;99.90;;;;;;4993102;28;20517;-85
2021/09/28 11:05:28;;;;;;;1.33;0.40;;;25.60;93.30;;;;;;4975586;28;20510;-86
2021/09/28 11:07:53;;;;;;;2.20;0.30;;;25.50;95.00;;;;;;4992692;28;20465;-85
2021/09/28 11:10:22;;;;;;;1.63;0.43;;;25.00;98.20;;;;;;4992846;28;20513;-85
2021/09/28 11:12:48;;;;;;;1.63;0.23;;;25.00;94.70;;;;;;4976677;28;20746;-85
2021/09/28 11:15:22;;;;;;;2.90;0.47;;;24.30;96.10;;;;;;4979386;28;20489;-84
2021/09/28 11:17:48;;;;;;;1.47;0.20;;;23.50;99.30;;;;;;4979229;28;20535;-87
2021/09/28 11:20:28;;;;;;;1.53;0.20;;;23.50;99.90;;;;;;4979045;28;20513;-85
2021/09/28 11:22:55;;;;;;;1.00;0.30;;;24.30;96.50;;;;;;4996531;28;20251;-90
2021/09/28 11:25:24;;;;;;;2.83;0.30;;;24.80;99.70;;;;;;4978990;28;20426;-87
2021/09/28 11:28:11;;;;;;;3.50;0.30;;;24.90;99.90;;;;;;4996024;28;20407;-86
2021/09/28 11:30:40;;;;;;;1.73;0.37;;;25.00;99.90;;;;;;4994358;28;20481;-85
2021/09/28 11:33:10;;;;;;;1.70;0.30;;;25.30;99.90;;;;;;4994167;28;20951;-85
2021/09/28 11:35:36;;;;;;;2.00;0.30;;;25.20;94.30;;;;;;4978589;28;20506;-85
2021/09/28 11:38:05;;;;;;;1.77;0.40;;;25.20;95.80;;;;;;4994139;28;20418;-85
2021/09/28 11:40:40;;;;;;;1.80;0.40;;;25.20;96.20;;;;;;4995811;28;20419;-84
2021/09/28 11:43:19;;;;;;;1.40;0.50;;;25.20;95.30;;;;;;4978716;28;20788;-84
2021/09/28 11:46:03;;;;;;;1.73;0.60;;;25.70;94.00;;;;;;4996181;28;20429;-86
2021/09/28 11:48:39;;;;;;;3.13;0.50;;;25.90;92.70;;;;;;4995856;28;20450;-85
2021/09/28 11:51:10;;;;;;;2.10;0.30;;;26.00;92.80;;;;;;4995883;28;20560;-88
2021/09/28 11:53:41;;;;;;;1.60;0.43;;;26.10;92.80;;;;;;4977735;28;20467;-84
2021/09/28 11:56:07;;;;;;;1.00;0.30;;;26.20;91.60;;;;;;4978629;28;20828;-85
2021/09/28 11:58:39;;;;;;;1.20;0.20;;;25.60;91.30;;;;;;4995693;28;20462;-86
2021/09/28 12:01:09;;;;;;;1.90;0.30;;;25.90;91.90;;;;;;4978401;28;20412;-85
2021/09/28 12:03:41;;;;;;;1.37;0.30;;;25.10;90.70;;;;;;4996032;28;20407;-92
2021/09/28 12:08:41;;;;;;;1.53;0.30;;;25.40;91.40;;;;;;4998230;28;20430;-84
2021/09/28 12:11:07;;;;;;;0.60;0.20;;;25.60;92.20;;;;;;4997407;28;20529;-84
2021/09/28 12:13:33;;;;;;;1.40;0.43;;;25.70;93.90;;;;;;4994195;28;20186;-85
2021/09/28 12:16:10;;;;;;;3.23;0.30;;;25.60;94.90;;;;;;4978054;28;20180;-84
2021/09/28 12:18:36;;;;;;;1.63;0.20;;;26.10;90.60;;;;;;4978054;28;21006;-84
2021/09/28 12:21:14;;;;;;;1.20;0.30;;;26.10;90.70;;;;;;4978019;28;20423;-85
2021/09/28 12:23:40;;;;;;;1.63;0.30;;;26.30;83.70;;;;;;4977422;28;20931;-84
2021/09/28 12:26:24;;;;;;;3.07;0.50;;;26.40;85.40;;;;;;4995242;28;20422;-88
2021/09/28 12:28:50;;;;;;;2.60;0.67;;;26.20;85.70;;;;;;4995309;28;20414;-89
2021/09/28 12:31:16;;;;;;;2.30;0.50;;;26.40;85.80;;;;;;4977607;28;20482;-87
2021/09/28 12:33:41;;;;;;;2.37;0.73;;;26.80;86.90;;;;;;4995126;28;20164;-87
2021/09/28 12:36:08;;;;;;;1.57;0.43;;;26.60;83.90;;;;;;4995040;28;20254;-87
2021/09/28 12:38:34;;;;;;;2.93;0.40;;;26.30;85.70;;;;;;4976437;28;20188;-87
2021/09/28 12:41:09;;;;;;;1.87;0.47;;;26.50;85.20;;;;;;4977515;28;20858;-87
2021/09/28 12:43:35;;;;;;;3.43;0.33;;;25.40;87.20;;;;;;4994919;28;20768;-86
2021/09/28 12:46:05;;;;;;;2.20;0.20;;;24.20;92.90;;;;;;4994838;28;20422;-86
2021/09/28 12:48:38;;;;;;;2.27;0.40;;;23.50;79.80;;;;;;4994625;28;20411;-87
2021/09/28 12:51:09;;;;;;;1.90;0.43;;;23.30;82.20;;;;;;4977014;28;20470;-87
2021/09/28 12:53:35;;;;;;;1.90;0.20;;;23.40;83.60;;;;;;4976650;28;20532;-86
2021/09/28 12:56:04;;;;;;;4.27;0.90;;;23.90;85.00;;;;;;4994466;28;20419;-87